Time;durP1;ratioP1;P1;durP2;ratioP2;P2;SDS_P1;SDS_P2;PMS_P1;PMS_P2;Temp;Humidity;BMP_temperature;BMP_pressure;BME280_temperature;BME280_humidity;BME280_pressure;Samples;Min_cycle;Max_cycle;Signal;HPM_P1;HPM_P2
2022/07/05 00:01:56;;;;;;;28.87;13.60;;;;;;;35.80;46.20;101325.13;6244477;23;20422;-77
2022/07/05 00:04:22;;;;;;;34.80;13.90;;;;;;;35.55;47.18;101328.78;6244415;23;20386;-77
2022/07/05 00:09:32;;;;;;;37.67;14.80;;;;;;;35.68;46.35;101319.28;6246078;23;20462;-76
2022/07/05 00:11:59;;;;;;;21.00;13.13;;;;;;;35.60;46.52;101317.16;6244407;23;20838;-77
2022/07/05 00:14:25;;;;;;;29.30;15.40;;;;;;;35.82;46.40;101311.34;6244358;23;20418;-77
2022/07/05 00:16:51;;;;;;;23.40;12.23;;;;;;;35.44;46.57;101295.66;6244242;23;20705;-77
2022/07/05 00:19:17;;;;;;;32.00;14.40;;;;;;;35.37;46.97;101297.03;6244540;23;20382;-75
2022/07/05 00:21:44;;;;;;;57.07;16.77;;;;;;;35.46;46.89;101296.19;6243977;23;20461;-75
2022/07/05 00:24:10;;;;;;;27.03;12.50;;;;;;;35.51;46.61;101293.47;6244381;23;20466;-75
2022/07/05 00:26:36;;;;;;;43.13;14.40;;;;;;;35.40;47.21;101293.75;6244370;23;20389;-78
2022/07/05 00:29:02;;;;;;;33.60;14.30;;;;;;;35.45;47.32;101286.47;6243870;23;20914;-75
2022/07/05 00:31:28;;;;;;;32.13;14.87;;;;;;;35.40;47.54;101277.56;6244221;23;20386;-75
2022/07/05 00:33:55;;;;;;;42.73;15.73;;;;;;;35.41;47.14;101277.28;6244196;23;20923;-75
2022/07/05 00:36:21;;;;;;;31.17;14.63;;;;;;;35.34;47.96;101274.09;6244268;23;20375;-76
2022/07/05 00:38:47;;;;;;;40.77;16.97;;;;;;;35.34;48.48;101274.09;6244121;23;20385;-75
2022/07/05 00:41:13;;;;;;;32.43;14.53;;;;;;;35.24;48.57;101260.69;6244064;23;20393;-75
2022/07/05 00:43:55;;;;;;;24.00;13.10;;;;;;;35.17;47.42;101263.69;6244085;23;20422;-78
2022/07/05 00:46:22;;;;;;;32.03;13.67;;;;;;;35.02;47.68;101269.13;6243979;23;20743;-75
2022/07/05 00:48:48;;;;;;;26.70;13.20;;;;;;;35.09;47.50;101261.56;6244113;23;20429;-75
2022/07/05 00:51:15;;;;;;;28.57;13.37;;;;;;;35.24;46.83;101271.47;6243762;22;20775;-78
2022/07/05 00:53:43;;;;;;;22.90;12.10;;;;;;;35.34;46.87;101273.28;6244082;23;20383;-77
2022/07/05 00:56:10;;;;;;;29.27;13.20;;;;;;;35.41;46.83;101268.38;6243883;23;20393;-78
2022/07/05 00:58:36;;;;;;;29.13;15.60;;;;;;;35.47;46.39;101276.22;6243861;23;20381;-77
2022/07/05 01:01:04;;;;;;;31.97;14.40;;;;;;;35.46;46.53;101277.28;6244068;23;20382;-77
2022/07/05 01:03:31;;;;;;;35.93;12.10;;;;;;;35.54;47.06;101283.97;6243833;23;20430;-75
2022/07/05 01:06:01;;;;;;;22.47;12.47;;;;;;;35.38;47.11;101285.94;6243971;23;20387;-76
2022/07/05 01:08:29;;;;;;;24.60;14.70;;;;;;;35.59;46.99;101281.25;6243830;23;20383;-75
2022/07/05 01:10:55;;;;;;;31.17;13.50;;;;;;;35.53;47.00;101285.88;6243825;23;20382;-76
2022/07/05 01:13:23;;;;;;;21.67;11.87;;;;;;;35.65;46.23;101279.34;6243910;23;20486;-78
2022/07/05 01:15:49;;;;;;;36.10;13.30;;;;;;;35.61;46.64;101276.41;6243771;23;20374;-78
2022/07/05 01:18:16;;;;;;;23.40;12.37;;;;;;;35.65;47.04;101272.03;6243932;23;20414;-76
2022/07/05 01:20:42;;;;;;;23.83;11.37;;;;;;;35.49;46.86;101265.97;6245847;22;20355;-77
2022/07/05 01:23:08;;;;;;;20.70;11.67;;;;;;;35.62;46.62;101263.72;6243607;23;20769;-76
2022/07/05 01:25:35;;;;;;;33.27;13.50;;;;;;;35.56;47.00;101251.34;6243835;23;20386;-75
2022/07/05 01:28:03;;;;;;;33.77;12.93;;;;;;;35.47;47.26;101251.91;6243548;23;20785;-75
2022/07/05 01:30:32;;;;;;;21.57;10.23;;;;;;;35.51;46.47;101247.59;6243826;23;20378;-76
2022/07/05 01:32:59;;;;;;;28.40;12.70;;;;;;;35.15;47.45;101240.75;6243647;23;20406;-75
2022/07/05 01:35:25;;;;;;;22.20;10.43;;;;;;;35.08;47.46;101238.38;6243792;23;20402;-78
2022/07/05 01:37:52;;;;;;;26.20;12.13;;;;;;;35.04;48.08;101231.91;6243572;23;20374;-77
2022/07/05 01:40:20;;;;;;;21.53;11.10;;;;;;;35.04;47.70;101233.81;6245614;22;20342;-76
2022/07/05 01:42:47;;;;;;;31.20;13.80;;;;;;;35.04;47.63;101237.31;6243540;23;20429;-76
2022/07/05 01:45:38;;;;;;;28.77;13.27;;;;;;;35.13;47.66;101234.84;6243537;23;20383;-76
2022/07/05 01:48:01;;;;;;;17.23;10.63;;;;;;;35.05;47.90;101235.41;6245465;22;20398;-76
2022/07/05 01:50:31;;;;;;;25.90;12.20;;;;;;;35.02;47.86;101238.69;6248859;22;20382;-75
2022/07/05 01:53:00;;;;;;;29.30;12.60;;;;;;;35.27;47.79;101246.63;6248551;22;20873;-78
2022/07/05 01:55:27;;;;;;;25.87;11.37;;;;;;;35.14;47.96;101248.06;6248544;22;20381;-77
2022/07/05 01:57:53;;;;;;;18.30;12.57;;;;;;;35.11;48.09;101245.09;6248680;22;20427;-77
2022/07/05 02:00:19;;;;;;;19.70;11.20;;;;;;;35.20;47.70;101240.75;6248548;22;20377;-76
2022/07/05 02:02:47;;;;;;;33.43;12.47;;;;;;;35.27;47.70;101236.66;6248400;22;20437;-77
2022/07/05 02:05:13;;;;;;;23.33;10.53;;;;;;;35.23;48.07;101237.47;6248578;22;20369;-78
2022/07/05 02:07:50;;;;;;;23.83;12.27;;;;;;;35.37;47.76;101226.91;6248486;22;20432;-77
2022/07/05 02:10:16;;;;;;;29.83;11.90;;;;;;;35.08;47.38;101240.25;6250642;22;20418;-78
2022/07/05 02:12:43;;;;;;;44.27;14.20;;;;;;;34.98;47.76;101233.81;6278221;22;20356;-76
2022/07/05 02:15:09;;;;;;;27.30;11.67;;;;;;;34.86;47.57;101224.41;6250590;22;20381;-75
2022/07/05 02:17:37;;;;;;;25.87;10.90;;;;;;;34.98;47.46;101231.13;6250722;22;20721;-75
2022/07/05 02:20:04;;;;;;;24.83;12.10;;;;;;;35.00;47.97;101236.25;6250834;22;20378;-78
2022/07/05 02:22:33;;;;;;;29.87;12.93;;;;;;;34.95;48.62;101231.69;6250318;22;20425;-77
2022/07/05 02:24:59;;;;;;;24.63;12.70;;;;;;;35.03;48.28;101235.69;6278103;22;20361;-77
2022/07/05 02:27:26;;;;;;;26.27;10.03;;;;;;;34.99;48.09;101223.88;6250554;22;20377;-75
2022/07/05 02:29:52;;;;;;;24.30;11.57;;;;;;;35.10;48.11;101227.31;6277960;22;20833;-75
2022/07/05 02:32:18;;;;;;;26.73;11.20;;;;;;;35.26;48.18;101223.44;6250432;22;20446;-76
2022/07/05 02:34:44;;;;;;;25.57;11.97;;;;;;;35.16;47.79;101223.50;6250367;22;20937;-76
2022/07/05 02:37:11;;;;;;;27.90;11.80;;;;;;;34.98;48.24;101224.94;6250315;22;20409;-78
2022/07/05 02:39:37;;;;;;;31.77;11.77;;;;;;;35.08;48.22;101224.09;6250257;22;20454;-78
2022/07/05 02:42:03;;;;;;;31.37;12.73;;;;;;;35.22;47.56;101217.00;6250271;22;20420;-77
2022/07/05 02:44:29;;;;;;;28.60;11.70;;;;;;;35.16;46.95;101224.31;6250449;22;20388;-76
2022/07/05 02:46:56;;;;;;;33.37;13.33;;;;;;;35.28;46.87;101222.06;6277727;22;20842;-76
2022/07/05 02:49:22;;;;;;;22.93;12.70;;;;;;;35.35;46.95;101226.34;6277838;22;20370;-78
2022/07/05 02:51:48;;;;;;;36.67;12.97;;;;;;;35.42;46.94;101238.50;6244819;22;20437;-77
2022/07/05 02:54:14;;;;;;;31.40;12.70;;;;;;;35.37;46.85;101235.00;6245036;23;20505;-77
2022/07/05 02:56:40;;;;;;;52.93;13.87;;;;;;;35.49;46.69;101247.06;6245265;23;20382;-77
2022/07/05 02:59:06;;;;;;;34.23;11.50;;;;;;;35.53;46.64;101250.81;6245192;23;20457;-77
2022/07/05 03:01:32;;;;;;;35.60;12.57;;;;;;;35.68;46.36;101258.00;6244816;23;20378;-75
2022/07/05 03:04:00;;;;;;;30.10;16.80;;;;;;;35.62;46.67;101258.31;6245082;23;20418;-75
2022/07/05 03:06:26;;;;;;;30.97;11.33;;;;;;;35.51;46.88;101254.88;6245129;23;20521;-76
2022/07/05 03:08:52;;;;;;;22.37;11.60;;;;;;;35.57;46.88;101258.34;6244910;23;20389;-75
2022/07/05 03:11:20;;;;;;;40.17;12.73;;;;;;;35.47;46.99;101253.81;6245265;23;20378;-75
2022/07/05 03:13:47;;;;;;;23.27;12.37;;;;;;;35.52;47.23;101251.91;6245053;23;20402;-75
2022/07/05 03:16:14;;;;;;;28.50;11.77;;;;;;;35.55;46.78;101244.34;6245135;23;20877;-76
2022/07/05 03:18:40;;;;;;;28.37;10.73;;;;;;;35.64;46.42;101239.94;6244963;23;20382;-76
2022/07/05 03:21:06;;;;;;;32.90;10.50;;;;;;;35.49;46.12;101240.88;6244928;23;20735;-78
2022/07/05 03:23:32;;;;;;;26.23;11.13;;;;;;;35.45;47.12;101246.00;6244826;23;20436;-76
2022/07/05 03:25:59;;;;;;;19.33;11.60;;;;;;;35.37;47.11;101248.47;6244900;23;20385;-76
2022/07/05 03:28:25;;;;;;;38.40;11.97;;;;;;;35.70;46.68;101244.22;6244940;23;20461;-76
2022/07/05 03:30:51;;;;;;;27.17;12.70;;;;;;;35.88;46.34;101251.63;6244919;23;20382;-75
2022/07/05 03:33:17;;;;;;;20.23;12.10;;;;;;;35.83;46.21;101251.69;6244741;23;20400;-75
2022/07/05 03:35:43;;;;;;;24.50;11.50;;;;;;;35.64;46.86;101270.44;6244929;23;20413;-75
2022/07/05 03:38:09;;;;;;;26.83;12.17;;;;;;;35.42;46.03;101268.16;6246828;22;20397;-78
2022/07/05 03:40:35;;;;;;;22.93;11.07;;;;;;;35.11;46.27;101262.09;6244726;23;20379;-77
2022/07/05 03:43:01;;;;;;;18.87;8.87;;;;;;;34.30;47.50;101265.75;6244693;23;20468;-75
2022/07/05 03:45:28;;;;;;;20.97;9.50;;;;;;;34.13;47.22;101257.16;6270287;22;20391;-76
2022/07/05 03:48:00;;;;;;;26.17;10.00;;;;;;;34.12;46.61;101263.63;6270243;22;20474;-75
2022/07/05 03:50:27;;;;;;;29.63;12.17;;;;;;;34.37;45.97;101263.59;6247723;22;20422;-75
2022/07/05 03:52:53;;;;;;;21.80;9.00;;;;;;;34.03;46.80;101262.56;6249703;22;20385;-75
2022/07/05 03:55:20;;;;;;;27.43;8.87;;;;;;;34.20;46.32;101255.81;6249682;22;20369;-75
2022/07/05 03:57:47;;;;;;;17.93;8.70;;;;;;;33.97;47.15;101258.25;6249656;22;20867;-75
2022/07/05 04:00:14;;;;;;;14.60;7.13;;;;;;;34.24;46.95;101266.84;6249597;22;20381;-77
2022/07/05 04:02:41;;;;;;;11.50;5.57;;;;;;;34.34;46.02;101274.13;6249483;22;20436;-77
2022/07/05 04:05:07;;;;;;;12.93;6.40;;;;;;;34.42;45.89;101273.56;6249664;22;20479;-78
2022/07/05 04:07:34;;;;;;;13.37;6.53;;;;;;;33.91;46.54;101277.09;6249498;22;20370;-77
2022/07/05 04:10:00;;;;;;;7.17;4.23;;;;;;;33.15;48.56;101279.53;6249514;22;20420;-77
2022/07/05 04:12:26;;;;;;;9.00;5.97;;;;;;;33.39;48.20;101274.50;6249536;22;20373;-75
2022/07/05 04:14:52;;;;;;;13.10;5.80;;;;;;;33.39;48.38;101269.97;6276773;22;20393;-75
2022/07/05 04:17:19;;;;;;;12.23;6.80;;;;;;;33.49;48.41;101271.06;6277087;22;20793;-75
2022/07/05 04:19:45;;;;;;;9.80;6.30;;;;;;;33.85;47.80;101270.06;6249386;22;20396;-75
2022/07/05 04:22:11;;;;;;;15.93;7.87;;;;;;;33.61;48.36;101271.63;6249254;22;20413;-75
2022/07/05 04:25:16;;;;;;;12.00;7.27;;;;;;;33.35;49.54;101278.81;6249346;22;20409;-75
2022/07/05 04:27:23;;;;;;;10.60;6.40;;;;;;;33.77;48.95;101269.78;6276500;22;20380;-75
2022/07/05 04:29:49;;;;;;;11.20;6.73;;;;;;;33.87;48.70;101275.97;6249303;22;20439;-75
2022/07/05 04:32:15;;;;;;;14.03;7.07;;;;;;;33.88;48.88;101277.59;6248863;22;20436;-76
2022/07/05 04:34:42;;;;;;;14.43;7.40;;;;;;;33.92;48.99;101283.28;6249284;22;20378;-75
2022/07/05 04:37:08;;;;;;;14.60;8.60;;;;;;;33.41;50.06;101275.09;6249186;22;20413;-75
2022/07/05 04:39:34;;;;;;;21.83;12.10;;;;;;;33.65;49.31;101278.09;6249264;22;20460;-75
2022/07/05 04:42:00;;;;;;;18.60;8.53;;;;;;;34.10;48.63;101271.97;6249093;22;20421;-76
2022/07/05 04:44:26;;;;;;;14.57;9.03;;;;;;;33.91;49.16;101279.78;6249178;22;20381;-77
2022/07/05 04:46:53;;;;;;;16.53;9.63;;;;;;;34.08;48.90;101286.78;6249008;22;20397;-78
2022/07/05 04:49:19;;;;;;;18.33;9.47;;;;;;;33.73;49.51;101280.25;6249076;22;20385;-76
2022/07/05 04:51:45;;;;;;;15.23;11.00;;;;;;;33.65;50.18;101270.84;6248782;22;20437;-75
2022/07/05 04:54:11;;;;;;;15.63;8.73;;;;;;;33.87;49.65;101275.97;6248994;22;20388;-75
2022/07/05 04:56:37;;;;;;;14.77;9.37;;;;;;;33.87;49.44;101275.97;6249040;22;20414;-75
2022/07/05 04:59:03;;;;;;;13.27;8.33;;;;;;;33.54;50.15;101273.78;6248949;22;20389;-75
2022/07/05 05:01:29;;;;;;;14.57;8.50;;;;;;;33.86;49.66;101284.31;6248919;22;20401;-75
2022/07/05 05:03:55;;;;;;;17.47;10.60;;;;;;;33.93;48.94;101285.69;6248834;22;20444;-74
2022/07/05 05:06:22;;;;;;;15.30;9.80;;;;;;;34.25;47.94;101284.59;6249046;22;20381;-76
2022/07/05 05:08:48;;;;;;;12.33;9.27;;;;;;;33.93;48.36;101279.50;6248846;22;20382;-76
2022/07/05 05:11:14;;;;;;;16.83;10.37;;;;;;;33.80;48.16;101294.25;6248891;22;20392;-75
2022/07/05 05:13:45;;;;;;;13.60;8.60;;;;;;;33.98;48.44;101284.88;6248900;22;20408;-76
2022/07/05 05:16:11;;;;;;;20.07;10.07;;;;;;;34.17;47.61;101294.03;6276469;22;20399;-76
2022/07/05 05:18:37;;;;;;;15.93;10.27;;;;;;;33.93;48.53;101296.44;6276473;22;20362;-76
2022/07/05 05:21:04;;;;;;;12.37;9.30;;;;;;;34.18;47.81;101298.34;6248682;22;20392;-76
2022/07/05 05:23:30;;;;;;;14.17;9.20;;;;;;;34.34;47.34;101295.66;6248801;22;20417;-74
2022/07/05 05:25:56;;;;;;;15.40;9.53;;;;;;;34.41;47.47;101299.69;6248674;22;20412;-75
2022/07/05 05:28:22;;;;;;;21.40;10.87;;;;;;;34.52;47.31;101307.78;6248813;22;20842;-74
2022/07/05 05:30:48;;;;;;;17.90;10.40;;;;;;;34.29;47.80;101318.00;6248864;22;20393;-77
2022/07/05 05:33:14;;;;;;;17.37;10.03;;;;;;;34.35;47.56;101311.53;6248548;22;20488;-75
2022/07/05 05:35:41;;;;;;;17.37;9.10;;;;;;;34.03;48.80;101311.81;6248885;22;20400;-70
2022/07/05 05:38:07;;;;;;;14.40;9.60;;;;;;;34.30;47.98;101321.50;6248392;22;20451;-74
2022/07/05 05:40:34;;;;;;;20.23;9.77;;;;;;;34.39;48.17;101318.00;6248513;22;20405;-75
2022/07/05 05:43:00;;;;;;;16.50;10.90;;;;;;;34.70;47.34;101320.69;6247734;22;20432;-79
2022/07/05 05:45:26;;;;;;;26.33;10.80;;;;;;;34.44;48.15;101333.41;6248276;22;20788;-74
2022/07/05 05:47:58;;;;;;;13.10;9.70;;;;;;;34.17;48.26;101333.63;6248548;22;20409;-74
2022/07/05 05:50:27;;;;;;;26.97;12.50;;;;;;;34.33;48.16;101335.25;6247979;22;20413;-74
2022/07/05 05:52:54;;;;;;;23.77;13.10;;;;;;;34.39;47.96;101342.25;6248783;22;20369;-73
2022/07/05 05:55:21;;;;;;;24.40;14.23;;;;;;;34.68;47.38;101342.53;6276239;22;20411;-74
2022/07/05 05:57:47;;;;;;;20.93;11.90;;;;;;;34.86;46.71;101351.91;6248376;22;20933;-74
2022/07/05 06:00:17;;;;;;;20.27;12.30;;;;;;;34.66;47.08;101351.94;6248692;22;20370;-76
2022/07/05 06:02:45;;;;;;;24.73;10.77;;;;;;;34.53;47.37;101357.88;6248347;22;20758;-75
2022/07/05 06:05:12;;;;;;;26.70;15.07;;;;;;;34.32;47.77;101363.25;6276234;22;20353;-74
2022/07/05 06:07:54;;;;;;;24.40;11.67;;;;;;;34.23;47.67;101362.16;6248297;22;20445;-75
2022/07/05 06:10:27;;;;;;;26.30;15.20;;;;;;;34.62;47.06;101370.56;6248434;22;20389;-74
2022/07/05 06:12:56;;;;;;;28.73;14.00;;;;;;;34.39;47.46;101368.38;6248311;22;20418;-74
2022/07/05 06:15:22;;;;;;;24.07;15.43;;;;;;;34.63;46.37;101371.38;6248308;22;20849;-74
2022/07/05 06:17:48;;;;;;;26.40;15.53;;;;;;;34.48;46.97;101374.84;6248273;22;20377;-74
2022/07/05 06:20:17;;;;;;;19.47;12.80;;;;;;;34.45;46.83;101370.03;6248579;22;20452;-74
2022/07/05 06:22:43;;;;;;;29.63;14.33;;;;;;;34.74;46.06;101372.94;6248152;22;20409;-74
2022/07/05 06:25:10;;;;;;;32.97;16.70;;;;;;;34.18;47.33;101378.31;6247312;22;20469;-74
2022/07/05 06:27:44;;;;;;;30.00;13.93;;;;;;;34.14;47.47;101377.25;6246366;22;20369;-74
2022/07/05 06:30:14;;;;;;;18.50;13.77;;;;;;;34.05;47.19;101381.53;6248206;22;20365;-74
2022/07/05 06:32:45;;;;;;;38.30;14.93;;;;;;;34.08;47.38;101376.44;6248139;22;20358;-75
2022/07/05 06:35:11;;;;;;;22.53;15.07;;;;;;;34.38;46.28;101388.31;6245811;22;20373;-75
2022/07/05 06:37:51;;;;;;;35.57;13.87;;;;;;;34.36;46.94;101376.97;6248421;22;20843;-75
2022/07/05 06:40:26;;;;;;;29.87;17.10;;;;;;;34.36;46.68;101387.75;6248287;22;20427;-75
2022/07/05 06:42:56;;;;;;;23.73;13.57;;;;;;;34.50;46.64;101393.44;6248361;22;20884;-74
2022/07/05 06:45:23;;;;;;;22.40;13.50;;;;;;;34.72;46.39;101397.47;6248074;22;20373;-74
2022/07/05 06:47:59;;;;;;;24.80;15.10;;;;;;;34.68;46.38;101403.66;6248365;22;20405;-76
2022/07/05 06:50:31;;;;;;;25.50;14.70;;;;;;;34.23;47.18;101397.16;6247645;22;20405;-76
2022/07/05 06:52:57;;;;;;;30.43;16.90;;;;;;;34.40;47.00;101394.22;6246953;22;20412;-76
2022/07/05 06:55:24;;;;;;;24.63;15.03;;;;;;;33.93;47.97;101409.50;6249511;22;20374;-76
2022/07/05 06:58:14;;;;;;;32.37;15.87;;;;;;;34.35;47.19;101395.03;6250009;22;20408;-76
2022/07/05 07:00:41;;;;;;;33.07;15.50;;;;;;;34.20;47.53;101401.22;6249945;22;20377;-76
2022/07/05 07:03:08;;;;;;;32.23;16.80;;;;;;;34.03;47.70;101403.34;6250247;22;20488;-76
2022/07/05 07:05:34;;;;;;;24.27;16.40;;;;;;;34.26;46.92;101403.91;6250052;22;20405;-76
2022/07/05 07:10:45;;;;;;;24.20;15.63;;;;;;;34.51;46.62;101403.97;6277284;22;20380;-77
2022/07/05 07:13:11;;;;;;;26.80;19.17;;;;;;;34.64;46.33;101408.00;6277833;22;20357;-74
2022/07/05 07:15:40;;;;;;;41.40;19.50;;;;;;;34.48;46.36;101401.78;6250143;22;20397;-76
2022/07/05 07:18:06;;;;;;;37.90;17.90;;;;;;;34.40;46.86;101410.38;6249996;22;20378;-74
2022/07/05 07:20:33;;;;;;;39.07;20.17;;;;;;;34.11;47.39;101413.56;6277685;22;20825;-74
2022/07/05 07:22:59;;;;;;;29.10;18.17;;;;;;;34.27;47.34;101409.03;6249815;22;20483;-74
2022/07/05 07:25:25;;;;;;;37.13;18.37;;;;;;;34.22;47.28;101417.91;6250053;22;20447;-74
2022/07/05 07:27:53;;;;;;;26.37;18.33;;;;;;;34.56;46.72;101420.13;6250062;22;20393;-77
2022/07/05 07:30:23;;;;;;;26.90;17.00;;;;;;;34.36;47.27;101426.25;6249818;22;20373;-77
2022/07/05 07:32:49;;;;;;;32.93;15.73;;;;;;;34.26;47.16;101430.84;6250062;22;20397;-75
2022/07/05 07:35:16;;;;;;;27.57;17.73;;;;;;;33.85;48.21;101430.72;6249843;22;20377;-75
2022/07/05 07:37:42;;;;;;;27.07;17.80;;;;;;;33.98;47.81;101432.13;6249839;22;20404;-75
2022/07/05 07:40:09;;;;;;;34.57;18.27;;;;;;;34.10;47.85;101433.50;6250017;22;20380;-75
2022/07/05 07:42:36;;;;;;;30.77;15.40;;;;;;;34.14;47.68;101426.53;6249662;22;20511;-75
2022/07/05 07:45:03;;;;;;;21.23;13.53;;;;;;;33.89;48.37;101426.44;6249879;22;20488;-75
2022/07/05 07:47:34;;;;;;;24.97;16.47;;;;;;;34.14;47.90;101423.81;6249803;22;20876;-75
2022/07/05 07:50:01;;;;;;;24.93;17.73;;;;;;;34.44;47.08;101428.47;6249837;22;20448;-75
2022/07/05 07:52:27;;;;;;;21.73;15.30;;;;;;;34.41;47.16;101420.09;6244360;23;20445;-77
2022/07/05 07:54:53;;;;;;;27.13;14.77;;;;;;;34.59;46.64;101426.84;6244726;23;20374;-77
2022/07/05 07:57:19;;;;;;;29.43;15.70;;;;;;;34.54;46.89;101427.66;6246649;22;20367;-75
2022/07/05 07:59:45;;;;;;;21.47;13.60;;;;;;;34.36;46.83;101438.94;6244498;23;20406;-75
2022/07/05 08:02:12;;;;;;;23.93;13.53;;;;;;;34.06;47.81;101432.41;6244635;23;20556;-75
2022/07/05 08:04:38;;;;;;;24.90;13.83;;;;;;;33.99;47.63;101437.22;6244624;23;20714;-77
2022/07/05 08:07:04;;;;;;;24.97;14.37;;;;;;;34.38;46.79;101442.97;6243945;23;20414;-77
2022/07/05 08:09:31;;;;;;;22.80;12.53;;;;;;;34.54;46.34;101437.63;6244531;23;20418;-75
2022/07/05 08:11:57;;;;;;;16.23;12.10;;;;;;;34.74;46.57;101443.00;6244472;23;20374;-75
2022/07/05 08:14:23;;;;;;;27.27;16.70;;;;;;;34.82;45.89;101444.38;6244467;23;20405;-75
2022/07/05 08:16:50;;;;;;;29.60;13.40;;;;;;;34.90;45.69;101460.81;6246483;22;20706;-77
2022/07/05 08:22:02;;;;;;;23.00;15.23;;;;;;;35.27;44.79;101455.13;6245882;23;20430;-77
2022/07/05 08:24:28;;;;;;;32.70;17.40;;;;;;;34.98;45.59;101454.88;6244300;23;20409;-77
2022/07/05 08:26:54;;;;;;;27.20;15.73;;;;;;;34.91;45.17;101458.91;6244345;23;20715;-77
2022/07/05 08:29:20;;;;;;;22.50;12.87;;;;;;;34.78;45.95;101460.28;6246144;22;20719;-75
2022/07/05 08:31:49;;;;;;;34.80;16.20;;;;;;;34.84;46.09;101461.06;6244242;23;20437;-75
2022/07/05 08:34:19;;;;;;;29.50;15.93;;;;;;;34.73;45.85;101455.69;6244266;23;20374;-75
2022/07/05 08:36:46;;;;;;;30.67;14.40;;;;;;;34.67;46.36;101459.44;6244290;23;20382;-74
2022/07/05 08:39:13;;;;;;;25.87;16.20;;;;;;;34.31;46.99;101463.97;6244177;23;20485;-77
2022/07/05 08:41:41;;;;;;;21.50;10.80;;;;;;;34.24;47.22;101468.00;6244255;23;20834;-77
2022/07/05 08:44:08;;;;;;;25.77;11.30;;;;;;;33.90;47.54;101469.22;6244117;23;20410;-75
2022/07/05 08:46:40;;;;;;;29.03;15.23;;;;;;;34.55;46.37;101475.06;6243953;23;20726;-75
2022/07/05 08:49:07;;;;;;;29.50;14.07;;;;;;;34.77;45.85;101469.44;6244262;23;20386;-75
2022/07/05 08:51:38;;;;;;;23.23;11.23;;;;;;;34.81;45.79;101475.91;6243697;22;20433;-75
2022/07/05 08:54:05;;;;;;;25.03;12.97;;;;;;;35.10;45.60;101484.25;6244153;23;20382;-76
2022/07/05 08:56:32;;;;;;;22.80;13.10;;;;;;;35.20;45.03;101476.16;6244200;23;20390;-77
2022/07/05 08:58:59;;;;;;;20.40;13.37;;;;;;;35.27;44.91;101479.38;6243931;23;20413;-75
2022/07/05 09:01:25;;;;;;;25.63;12.53;;;;;;;35.33;44.85;101482.88;6244124;23;20465;-75
2022/07/05 09:03:52;;;;;;;21.13;11.20;;;;;;;35.31;44.12;101485.06;6243902;23;20426;-77
2022/07/05 09:06:21;;;;;;;36.20;14.10;;;;;;;35.46;43.94;101470.75;6244023;23;20386;-77
2022/07/05 09:08:51;;;;;;;79.03;15.90;;;;;;;35.28;44.05;101480.19;6243785;23;20799;-75
2022/07/05 09:11:21;;;;;;;23.40;12.27;;;;;;;34.96;44.92;101475.91;6243956;23;20386;-75
2022/07/05 09:13:51;;;;;;;16.27;11.07;;;;;;;34.83;44.94;101479.13;6243977;23;20374;-75
2022/07/05 09:16:18;;;;;;;21.53;12.80;;;;;;;34.92;45.31;101472.13;6244016;23;20386;-75
2022/07/05 09:18:54;;;;;;;23.33;11.60;;;;;;;35.03;45.06;101472.16;6243829;23;20381;-75
2022/07/05 09:21:25;;;;;;;29.33;12.93;;;;;;;35.08;45.29;101480.22;6243752;23;20787;-75
2022/07/05 09:23:57;;;;;;;21.40;14.40;;;;;;;35.08;44.89;101474.84;6243761;23;20422;-74
2022/07/05 09:26:48;;;;;;;21.37;13.30;;;;;;;35.27;44.93;101475.88;6243768;23;20432;-77
2022/07/05 09:29:20;;;;;;;20.17;12.57;;;;;;;35.37;44.65;101473.16;6245717;22;20367;-77
2022/07/05 09:31:52;;;;;;;19.20;11.83;;;;;;;35.20;44.67;101478.06;6243843;23;20457;-77
2022/07/05 09:34:20;;;;;;;23.87;16.87;;;;;;;35.31;44.76;101484.25;6243636;23;20722;-77
2022/07/05 09:36:54;;;;;;;35.87;14.37;;;;;;;34.98;45.06;101481.84;6243809;23;20382;-77
2022/07/05 09:39:41;;;;;;;27.93;11.57;;;;;;;34.82;45.19;101476.72;6243598;23;20377;-75
2022/07/05 09:42:22;;;;;;;20.60;12.20;;;;;;;34.90;45.04;101471.59;6243454;23;20386;-75
2022/07/05 09:44:49;;;;;;;24.03;12.60;;;;;;;35.23;44.44;101480.19;6243751;23;20386;-75
2022/07/05 09:47:18;;;;;;;20.20;13.23;;;;;;;35.46;44.46;101481.53;6243817;23;20405;-75
2022/07/05 09:49:46;;;;;;;26.47;13.77;;;;;;;35.38;44.15;101473.97;6243513;22;20400;-75
2022/07/05 09:52:33;;;;;;;21.53;12.77;;;;;;;35.47;44.08;101475.84;6243415;23;20771;-75
2022/07/05 09:55:19;;;;;;;19.00;12.87;;;;;;;34.78;45.58;101479.13;6243864;23;20472;-77
2022/07/05 09:57:54;;;;;;;29.83;14.60;;;;;;;34.85;45.94;101468.06;6243515;23;20850;-75
2022/07/05 10:00:23;;;;;;;49.90;17.30;;;;;;;35.21;45.21;101469.69;6243621;23;20382;-75
2022/07/05 10:02:58;;;;;;;33.00;16.47;;;;;;;35.22;45.25;101462.41;6245413;22;20464;-74
2022/07/05 10:05:26;;;;;;;32.93;19.20;;;;;;;35.51;44.52;101462.63;6243565;23;20385;-77
2022/07/05 10:07:57;;;;;;;35.73;19.23;;;;;;;35.37;44.82;101458.88;6245326;22;20393;-77
2022/07/05 10:10:31;;;;;;;29.30;14.97;;;;;;;35.13;45.87;101455.97;6243589;23;20389;-75
2022/07/05 10:12:59;;;;;;;25.33;15.40;;;;;;;35.00;46.31;101452.75;6243471;23;20380;-75
2022/07/05 10:15:31;;;;;;;23.83;15.73;;;;;;;35.11;45.85;101450.84;6243583;23;20432;-74
2022/07/05 10:18:12;;;;;;;21.93;13.70;;;;;;;35.20;45.76;101459.97;6243621;23;20402;-75
2022/07/05 10:20:45;;;;;;;33.37;15.70;;;;;;;35.47;45.55;101448.88;6245509;22;20351;-75
2022/07/05 10:23:17;;;;;;;21.60;12.17;;;;;;;35.53;44.74;101447.78;6243432;23;20910;-77
2022/07/05 10:25:49;;;;;;;30.90;16.30;;;;;;;35.59;45.30;101453.97;6243429;23;20389;-77
2022/07/05 10:28:16;;;;;;;32.50;13.80;;;;;;;35.55;45.00;101442.13;6243531;23;20484;-77
2022/07/05 10:30:49;;;;;;;40.90;13.30;;;;;;;35.45;44.97;101440.25;6245008;23;20440;-77
2022/07/05 10:33:20;;;;;;;21.33;12.27;;;;;;;35.55;45.03;101441.31;6245520;23;20395;-77
2022/07/05 10:35:47;;;;;;;30.47;14.77;;;;;;;35.31;45.99;101433.81;6245657;23;20385;-77
2022/07/05 10:38:14;;;;;;;19.20;11.80;;;;;;;35.49;45.57;101435.13;6245583;23;20402;-75
2022/07/05 10:40:43;;;;;;;20.90;14.40;;;;;;;35.60;45.35;101427.78;6245273;23;20807;-75
2022/07/05 10:43:12;;;;;;;28.77;15.33;;;;;;;35.23;46.63;101423.56;6245545;23;20496;-75
2022/07/05 10:45:41;;;;;;;21.60;12.00;;;;;;;35.39;45.99;101417.03;6245176;23;20444;-75
2022/07/05 10:48:16;;;;;;;21.37;11.43;;;;;;;35.32;45.72;101419.22;6245381;23;20382;-75
2022/07/05 10:50:53;;;;;;;24.10;13.27;;;;;;;35.16;45.96;101417.66;6252502;22;20420;-74
2022/07/05 10:53:23;;;;;;;28.83;10.73;;;;;;;35.42;45.68;101410.28;6250437;22;20377;-74
2022/07/05 10:55:59;;;;;;;28.13;15.17;;;;;;;35.55;45.42;101419.72;6277619;22;20397;-75
2022/07/05 10:58:33;;;;;;;19.63;11.67;;;;;;;35.47;45.02;101416.50;6250264;22;20404;-75
2022/07/05 11:01:21;;;;;;;21.53;12.40;;;;;;;35.58;44.77;101419.16;6250250;22;20463;-74
2022/07/05 11:03:57;;;;;;;29.03;13.23;;;;;;;35.64;45.28;101412.66;6250139;22;20966;-75
2022/07/05 11:06:46;;;;;;;23.87;10.13;;;;;;;35.34;44.93;101411.66;6250289;22;20377;-75
2022/07/05 11:09:13;;;;;;;22.13;11.00;;;;;;;35.43;45.13;101403.84;6249935;22;20409;-75
2022/07/05 11:12:00;;;;;;;27.77;13.80;;;;;;;35.02;44.94;101401.25;6250286;22;20871;-75
2022/07/05 11:14:28;;;;;;;17.40;10.50;;;;;;;35.31;45.45;101406.84;6250036;22;20433;-77
2022/07/05 11:17:12;;;;;;;17.50;11.33;;;;;;;35.33;44.92;101407.34;6277798;22;20407;-77
2022/07/05 11:20:08;;;;;;;21.03;11.67;;;;;;;35.26;45.47;101406.84;6250165;22;20413;-75
2022/07/05 11:23:02;;;;;;;21.33;13.90;;;;;;;35.84;44.24;101400.94;6249936;22;20417;-75
2022/07/05 11:25:32;;;;;;;16.63;9.40;;;;;;;35.82;43.99;101400.44;6277452;22;20381;-75